createdAt,value
2022-11-18T00:01:23.092Z,18.90
2022-11-18T00:03:53.623Z,18.88
2022-11-18T00:06:23.442Z,18.67
2022-11-18T00:08:51.955Z,20.25
2022-11-18T00:11:40.715Z,19.90
2022-11-18T00:14:20.394Z,20.52
2022-11-18T00:16:48.527Z,21.25
2022-11-18T00:19:18.902Z,20.45
2022-11-18T00:21:46.241Z,20.20
2022-11-18T00:24:13.449Z,20.75
2022-11-18T00:26:40.522Z,21.48
2022-11-18T00:29:10.905Z,21.02
2022-11-18T00:31:38.181Z,21.63
2022-11-18T00:34:05.587Z,21.52
2022-11-18T00:36:33.625Z,20.48
2022-11-18T00:39:00.917Z,21.95
2022-11-18T00:41:47.861Z,22.27
2022-11-18T00:44:15.392Z,22.10
2022-11-18T00:46:43.014Z,22.38
2022-11-18T00:49:10.306Z,20.05
2022-11-18T00:51:39.527Z,21.83
2022-11-18T00:54:06.848Z,21.95
2022-11-18T00:56:33.814Z,23.00
2022-11-18T00:59:01.156Z,21.55
2022-11-18T01:01:28.173Z,23.00
2022-11-18T01:03:55.547Z,24.00
2022-11-18T01:06:22.957Z,23.92
2022-11-18T01:08:50.561Z,25.58
2022-11-18T01:11:36.280Z,24.58
2022-11-18T01:14:03.642Z,24.98
2022-11-18T01:16:31.032Z,25.45
2022-11-18T01:18:58.534Z,25.52
2022-11-18T01:21:25.641Z,25.50
2022-11-18T01:23:53.666Z,25.25
2022-11-18T01:26:20.676Z,26.55
2022-11-18T01:28:47.930Z,26.58
2022-11-18T01:31:19.761Z,25.35
2022-11-18T01:33:47.514Z,25.35
2022-11-18T01:36:16.656Z,25.17
2022-11-18T01:38:44.136Z,25.50
2022-11-18T01:41:11.994Z,24.70
2022-11-18T01:43:52.959Z,26.52
2022-11-18T01:46:22.038Z,24.30
2022-11-18T01:48:54.114Z,23.50
2022-11-18T01:51:26.639Z,22.52
2022-11-18T01:54:00.394Z,23.55
2022-11-18T01:56:33.514Z,22.92
2022-11-18T01:59:10.087Z,21.98
2022-11-18T02:01:37.494Z,22.67
2022-11-18T02:04:05.756Z,23.35
2022-11-18T02:06:33.707Z,20.95
2022-11-18T02:09:01.711Z,22.42
2022-11-18T02:11:47.282Z,21.10
2022-11-18T02:14:14.644Z,20.45
2022-11-18T02:16:50.545Z,22.20
2022-11-18T02:19:39.325Z,23.27
2022-11-18T02:22:29.292Z,23.30
2022-11-18T02:25:15.253Z,21.95
2022-11-18T02:28:00.393Z,23.05
2022-11-18T02:30:33.772Z,24.20
2022-11-18T02:33:10.531Z,24.30
2022-11-18T02:35:43.602Z,24.98
2022-11-18T02:38:34.193Z,24.67
2022-11-18T02:41:10.943Z,24.75
2022-11-18T02:43:46.732Z,23.55
2022-11-18T02:46:20.751Z,23.48
2022-11-18T02:48:51.463Z,23.25
2022-11-18T02:51:23.760Z,24.52
2022-11-18T02:53:51.626Z,22.05
2022-11-18T02:56:21.429Z,23.00
2022-11-18T02:58:48.408Z,24.13
2022-11-18T03:01:20.917Z,23.70
2022-11-18T03:03:50.707Z,23.15
2022-11-18T03:06:35.572Z,23.40
2022-11-18T03:09:13.865Z,22.27
2022-11-18T03:11:47.076Z,22.75
2022-11-18T03:14:52.479Z,22.52
2022-11-18T03:17:39.023Z,22.95
2022-11-18T03:23:20.155Z,22.50
2022-11-18T03:25:56.002Z,22.65
2022-11-18T03:28:40.036Z,23.77
2022-11-18T03:31:28.186Z,23.00
2022-11-18T03:34:07.630Z,24.10
2022-11-18T03:36:40.683Z,24.40
2022-11-18T03:39:14.738Z,23.90
2022-11-18T03:41:46.510Z,26.08
2022-11-18T03:44:29.660Z,25.38
2022-11-18T03:47:06.985Z,22.65
2022-11-18T03:49:41.218Z,24.30
2022-11-18T03:52:13.401Z,24.30
2022-11-18T03:54:45.347Z,24.25
2022-11-18T03:57:20.287Z,23.83
2022-11-18T03:59:56.380Z,22.73
2022-11-18T04:02:28.169Z,21.95
2022-11-18T04:04:58.353Z,22.45
2022-11-18T04:07:57.302Z,23.00
2022-11-18T04:10:35.823Z,19.58
2022-11-18T04:13:44.317Z,22.67
2022-11-18T04:16:12.015Z,22.13
2022-11-18T04:18:39.033Z,22.58
2022-11-18T04:21:06.673Z,20.98
2022-11-18T04:23:33.657Z,21.88
2022-11-18T04:26:03.209Z,20.77
2022-11-18T04:28:33.242Z,22.15
2022-11-18T04:31:00.689Z,22.67
2022-11-18T04:33:32.319Z,20.52
2022-11-18T04:35:59.641Z,21.08
2022-11-18T04:38:26.802Z,21.48
2022-11-18T04:40:54.077Z,20.95
2022-11-18T04:43:21.035Z,20.75
2022-11-18T04:45:48.329Z,20.65
2022-11-18T04:48:16.167Z,20.70
2022-11-18T04:50:45.709Z,20.00
2022-11-18T04:53:12.747Z,20.23
2022-11-18T04:55:39.943Z,20.77
2022-11-18T04:58:06.931Z,19.48
2022-11-18T05:00:34.398Z,19.77
2022-11-18T05:03:01.359Z,18.15
2022-11-18T05:05:30.875Z,20.10
2022-11-18T05:07:57.815Z,20.38
2022-11-18T05:10:25.104Z,20.25
2022-11-18T05:12:52.658Z,19.25
2022-11-18T05:15:22.650Z,19.52
2022-11-18T05:17:50.236Z,20.48
2022-11-18T05:20:17.536Z,19.95
2022-11-18T05:22:44.640Z,19.48
2022-11-18T05:25:12.068Z,21.05
2022-11-18T05:27:39.768Z,19.70
2022-11-18T05:30:07.593Z,21.08
2022-11-18T05:32:34.707Z,18.95
2022-11-18T05:35:01.963Z,20.67
2022-11-18T05:37:28.921Z,19.90
2022-11-18T05:39:56.284Z,20.88
2022-11-18T05:42:41.836Z,21.38
2022-11-18T05:45:09.398Z,19.25
2022-11-18T05:47:56.325Z,21.42
2022-11-18T05:50:23.575Z,18.63
2022-11-18T05:52:50.699Z,21.33
2022-11-18T05:55:24.969Z,20.52
2022-11-18T05:57:54.371Z,21.58
2022-11-18T06:00:21.961Z,20.60
2022-11-18T06:02:51.921Z,21.02
2022-11-18T06:05:23.652Z,20.95
2022-11-18T06:07:50.676Z,20.85
2022-11-18T06:10:25.456Z,19.60
2022-11-18T06:12:57.672Z,20.42
2022-11-18T06:15:28.518Z,21.08
2022-11-18T06:18:03.517Z,21.15
2022-11-18T06:20:33.594Z,19.20
2022-11-18T06:23:01.966Z,18.55
2022-11-18T06:25:32.700Z,19.45
2022-11-18T06:28:02.389Z,20.02
2022-11-18T06:30:29.782Z,20.15
2022-11-18T06:32:56.761Z,19.42
2022-11-18T06:35:24.111Z,19.27
2022-11-18T06:37:51.035Z,19.15
2022-11-18T06:40:18.477Z,18.05
2022-11-18T06:43:04.148Z,16.98
2022-11-18T06:45:31.475Z,15.38
2022-11-18T06:48:00.913Z,16.73
2022-11-18T06:50:28.726Z,15.43
2022-11-18T06:52:56.090Z,14.05
2022-11-18T06:55:23.353Z,15.30
2022-11-18T06:57:50.283Z,14.75
2022-11-18T07:00:18.122Z,16.63
2022-11-18T07:02:45.100Z,15.55
2022-11-18T07:05:14.703Z,15.35
2022-11-18T07:07:42.501Z,14.00
2022-11-18T07:10:12.795Z,14.98
2022-11-18T07:12:42.134Z,15.93
2022-11-18T07:15:09.822Z,14.95
2022-11-18T07:17:36.915Z,15.75
2022-11-18T07:20:08.048Z,15.27
2022-11-18T07:22:35.091Z,15.88
2022-11-18T07:25:02.477Z,15.05
2022-11-18T07:27:29.487Z,15.02
2022-11-18T07:29:56.877Z,15.75
2022-11-18T07:32:23.904Z,16.55
2022-11-18T07:34:51.180Z,16.52
2022-11-18T07:37:18.152Z,17.38
2022-11-18T07:39:45.439Z,17.25
2022-11-18T07:42:14.705Z,18.27
2022-11-18T07:44:45.090Z,17.80
2022-11-18T07:47:12.359Z,17.77
2022-11-18T07:49:39.674Z,17.98
2022-11-18T07:52:09.005Z,17.48
2022-11-18T07:54:36.480Z,17.75
2022-11-18T07:57:03.527Z,18.83
2022-11-18T07:59:30.783Z,17.10
2022-11-18T08:01:57.884Z,16.83
2022-11-18T08:04:27.711Z,14.13
2022-11-18T08:06:54.743Z,15.02
2022-11-18T08:09:24.268Z,14.57
2022-11-18T08:11:51.344Z,13.38
2022-11-18T08:14:18.647Z,13.80
2022-11-18T08:16:45.705Z,13.27
2022-11-18T08:19:13.186Z,13.60
2022-11-18T08:21:40.201Z,15.82
2022-11-18T08:24:10.240Z,20.02
2022-11-18T08:26:37.237Z,14.82
2022-11-18T08:29:04.639Z,14.85
2022-11-18T08:31:31.787Z,15.32
2022-11-18T08:34:06.695Z,21.30
2022-11-18T08:36:37.507Z,16.48
2022-11-18T08:39:13.401Z,12.50
2022-11-18T08:41:44.280Z,12.30
2022-11-18T08:44:14.349Z,12.73
2022-11-18T08:46:42.353Z,13.98
2022-11-18T08:49:10.016Z,13.18
2022-11-18T08:51:40.001Z,15.00
2022-11-18T08:54:07.359Z,15.57
2022-11-18T08:56:34.433Z,16.05
2022-11-18T08:59:01.710Z,15.02
2022-11-18T09:01:28.782Z,14.57
2022-11-18T09:03:57.847Z,14.57
2022-11-18T09:06:25.362Z,15.13
2022-11-18T09:08:53.818Z,14.65
2022-11-18T09:11:26.116Z,13.88
2022-11-18T09:16:45.738Z,13.02
2022-11-18T09:19:45.571Z,14.38
2022-11-18T09:22:03.172Z,14.18
2022-11-18T09:24:30.575Z,15.65
2022-11-18T09:26:57.563Z,15.40
2022-11-18T09:29:27.724Z,14.73
2022-11-18T09:31:55.535Z,15.32
2022-11-18T09:34:23.674Z,15.63
2022-11-18T09:36:51.462Z,15.43
2022-11-18T09:39:19.091Z,15.05
2022-11-18T09:42:02.674Z,15.30
2022-11-18T09:44:51.395Z,14.65
2022-11-18T09:47:29.020Z,15.35
2022-11-18T09:50:33.997Z,15.55
2022-11-18T09:52:58.099Z,14.32
2022-11-18T09:55:28.841Z,14.35
2022-11-18T09:57:57.802Z,14.05
2022-11-18T10:00:32.072Z,16.20
2022-11-18T10:03:12.554Z,14.52
2022-11-18T10:05:57.798Z,13.80
2022-11-18T10:08:31.080Z,12.40
2022-11-18T10:11:15.220Z,9.80
2022-11-18T10:14:20.126Z,9.57
2022-11-18T10:16:56.596Z,9.15
2022-11-18T10:19:37.250Z,8.45
2022-11-18T10:22:25.925Z,7.45
2022-11-18T10:25:00.879Z,7.35
2022-11-18T10:27:39.402Z,7.60
2022-11-18T10:30:26.589Z,8.13
2022-11-18T10:33:04.286Z,9.02
2022-11-18T10:35:34.605Z,8.50
2022-11-18T10:38:16.093Z,9.18
2022-11-18T10:40:54.632Z,10.60
2022-11-18T10:43:45.525Z,10.65
2022-11-18T10:46:18.817Z,9.32
2022-11-18T10:48:47.468Z,10.70
2022-11-18T10:51:23.748Z,9.07
2022-11-18T10:53:51.258Z,9.00
2022-11-18T10:56:18.270Z,9.13
2022-11-18T10:58:50.332Z,9.20
2022-11-18T11:01:24.314Z,8.52
2022-11-18T11:04:20.317Z,7.38
2022-11-18T11:06:47.340Z,6.38
2022-11-18T11:09:14.612Z,7.78
2022-11-18T11:12:12.665Z,7.82
2022-11-18T11:14:50.958Z,7.70
2022-11-18T11:17:27.004Z,6.97
2022-11-18T11:20:13.210Z,7.05
2022-11-18T11:22:41.799Z,6.50
2022-11-18T11:29:20.307Z,8.30
2022-11-18T11:32:09.285Z,8.30
2022-11-18T11:34:58.035Z,7.53
2022-11-18T11:37:51.949Z,8.00
2022-11-18T11:40:55.080Z,8.55
2022-11-18T11:43:49.124Z,9.45
2022-11-18T11:46:28.494Z,8.50
2022-11-18T11:49:28.095Z,11.00
2022-11-18T11:52:02.702Z,10.05
2022-11-18T11:54:36.160Z,8.90
2022-11-18T11:57:12.262Z,8.70
2022-11-18T12:00:05.588Z,9.75
2022-11-18T12:03:08.061Z,8.30
2022-11-18T12:05:39.344Z,8.40
2022-11-18T12:08:11.841Z,9.65
2022-11-18T12:10:48.917Z,7.97
2022-11-18T12:13:34.195Z,8.57
2022-11-18T12:16:06.369Z,8.40
2022-11-18T12:18:55.461Z,7.80
2022-11-18T12:21:45.360Z,7.18
2022-11-18T12:24:18.487Z,7.63
2022-11-18T12:26:48.123Z,7.65
2022-11-18T12:29:21.405Z,8.57
2022-11-18T12:31:51.306Z,8.20
2022-11-18T12:34:33.816Z,9.13
2022-11-18T12:37:26.246Z,9.00
2022-11-18T12:40:04.589Z,8.93
2022-11-18T12:43:04.883Z,8.40
2022-11-18T12:45:41.023Z,8.52
2022-11-18T12:48:27.380Z,8.60
2022-11-18T12:51:00.959Z,8.13
2022-11-18T12:53:28.211Z,7.97
2022-11-18T12:55:56.110Z,7.60
2022-11-18T12:58:25.207Z,7.20
2022-11-18T13:01:06.400Z,7.03
2022-11-18T13:03:34.431Z,7.28
2022-11-18T13:06:06.320Z,6.75
2022-11-18T13:08:34.705Z,7.38
2022-11-18T13:11:33.499Z,7.03
2022-11-18T13:14:21.462Z,7.88
2022-11-18T13:17:07.562Z,8.20
2022-11-18T13:22:21.270Z,7.25
2022-11-18T13:24:50.904Z,7.22
2022-11-18T13:27:42.071Z,6.97
2022-11-18T13:30:14.315Z,7.63
2022-11-18T13:32:46.538Z,7.95
2022-11-18T13:35:17.603Z,8.43
2022-11-18T13:38:11.462Z,7.75
2022-11-18T13:41:04.461Z,7.40
2022-11-18T13:43:33.126Z,7.25
2022-11-18T13:46:02.511Z,7.00
2022-11-18T13:48:30.149Z,6.05
2022-11-18T13:51:00.232Z,6.68
2022-11-18T13:53:38.560Z,7.18
2022-11-18T13:56:07.790Z,7.50
2022-11-18T13:59:10.390Z,6.75
2022-11-18T14:01:28.693Z,7.65
2022-11-18T14:04:15.439Z,6.75
2022-11-18T14:06:42.927Z,6.40
2022-11-18T14:09:18.959Z,7.35
2022-11-18T14:11:59.242Z,6.35
2022-11-18T14:14:38.208Z,6.28
2022-11-18T14:17:22.484Z,5.78
2022-11-18T14:20:02.444Z,5.75
2022-11-18T14:22:34.468Z,5.95
2022-11-18T14:25:14.829Z,5.85
2022-11-18T14:27:58.060Z,6.60
2022-11-18T14:30:42.200Z,6.03
2022-11-18T14:33:15.430Z,6.93
2022-11-18T14:35:54.992Z,7.85
2022-11-18T14:41:14.169Z,9.02
2022-11-18T14:43:46.211Z,9.77
2022-11-18T14:46:19.616Z,10.15
2022-11-18T14:48:47.104Z,9.95
2022-11-18T14:51:15.831Z,11.38
2022-11-18T14:53:43.981Z,10.93
2022-11-18T14:56:23.061Z,10.90
2022-11-18T14:58:50.390Z,11.02
2022-11-18T15:01:17.538Z,10.52
2022-11-18T15:03:44.956Z,10.50
2022-11-18T15:06:16.913Z,10.93
2022-11-18T15:08:46.702Z,9.93
2022-11-18T15:11:16.517Z,10.40
2022-11-18T15:13:43.998Z,9.95
2022-11-18T15:16:17.505Z,8.95
2022-11-18T15:18:47.391Z,9.77
2022-11-18T15:21:17.960Z,8.90
2022-11-18T15:23:45.564Z,10.30
2022-11-18T15:26:21.005Z,9.27
2022-11-18T15:28:49.755Z,9.00
2022-11-18T15:31:17.323Z,10.48
2022-11-18T15:33:45.785Z,9.45
2022-11-18T15:36:18.628Z,8.98
2022-11-18T15:38:47.718Z,10.65
2022-11-18T15:41:28.768Z,12.73
2022-11-18T15:43:59.857Z,9.82
2022-11-18T15:46:30.753Z,11.43
2022-11-18T15:49:01.433Z,8.95
2022-11-18T15:51:30.238Z,10.23
2022-11-18T15:53:58.570Z,11.45
2022-11-18T15:56:29.320Z,11.15
2022-11-18T15:59:13.565Z,10.73
2022-11-18T16:01:43.763Z,13.85
2022-11-18T16:04:13.641Z,10.05
2022-11-18T16:06:43.673Z,9.10
2022-11-18T16:09:13.035Z,8.85
2022-11-18T16:11:58.666Z,10.60
2022-11-18T16:14:26.385Z,10.55
2022-11-18T16:16:55.439Z,9.70
2022-11-18T16:19:24.996Z,10.80
2022-11-18T16:21:55.623Z,12.43
2022-11-18T16:24:26.571Z,10.30
2022-11-18T16:26:54.012Z,12.68
2022-11-18T16:29:23.814Z,14.55
2022-11-18T16:31:52.854Z,10.55
2022-11-18T16:34:28.546Z,11.15
2022-11-18T16:36:58.026Z,10.73
2022-11-18T16:39:29.644Z,10.63
2022-11-18T16:42:06.786Z,8.75
2022-11-18T16:44:35.169Z,9.52
2022-11-18T16:47:12.248Z,10.50
2022-11-18T16:49:42.878Z,8.88
2022-11-18T16:52:10.324Z,10.13
2022-11-18T16:54:44.432Z,10.77
2022-11-18T16:57:12.582Z,9.88
2022-11-18T16:59:40.403Z,11.05
2022-11-18T17:02:07.784Z,9.77
2022-11-18T17:04:37.224Z,9.82
2022-11-18T17:07:06.955Z,10.25
2022-11-18T17:09:36.134Z,11.02
2022-11-18T17:12:03.818Z,11.07
2022-11-18T17:14:31.590Z,11.18
2022-11-18T17:16:59.199Z,12.18
2022-11-18T17:19:26.664Z,11.75
2022-11-18T17:21:53.857Z,13.35
2022-11-18T17:24:24.708Z,13.40
2022-11-18T17:26:52.816Z,13.45
2022-11-18T17:29:20.964Z,12.13
2022-11-18T17:31:49.116Z,13.05
2022-11-18T17:34:17.247Z,13.45
2022-11-18T17:36:44.629Z,12.70
2022-11-18T17:39:13.935Z,13.80
2022-11-18T17:42:00.011Z,13.65
2022-11-18T17:46:56.722Z,12.75
2022-11-18T17:49:24.778Z,13.75
2022-11-18T17:51:51.981Z,13.70
2022-11-18T17:54:21.117Z,14.07
2022-11-18T17:56:52.536Z,14.50
2022-11-18T17:59:21.960Z,13.73
2022-11-18T18:01:58.641Z,14.55
2022-11-18T18:04:26.873Z,14.43
2022-11-18T18:06:55.070Z,14.73
2022-11-18T18:09:26.898Z,15.57
2022-11-18T18:11:57.809Z,15.67
2022-11-18T18:14:25.597Z,15.07
2022-11-18T18:16:53.252Z,15.95
2022-11-18T18:19:22.844Z,15.80
2022-11-18T18:21:53.588Z,15.32
2022-11-18T18:24:22.210Z,15.27
2022-11-18T18:26:50.212Z,16.00
2022-11-18T18:29:17.881Z,15.88
2022-11-18T18:31:45.889Z,16.75
2022-11-18T18:34:13.353Z,16.52
2022-11-18T18:36:40.815Z,18.17
2022-11-18T18:39:08.965Z,17.00
2022-11-18T18:41:38.607Z,16.40
2022-11-18T18:44:06.564Z,17.83
2022-11-18T18:46:38.280Z,18.40
2022-11-18T18:49:20.648Z,17.33
2022-11-18T18:51:49.981Z,16.85
2022-11-18T18:54:20.429Z,18.83
2022-11-18T18:56:50.726Z,16.48
2022-11-18T18:59:18.561Z,16.88
2022-11-18T19:01:48.885Z,16.42
2022-11-18T19:04:18.311Z,16.60
2022-11-18T19:06:58.443Z,17.48
2022-11-18T19:09:27.810Z,17.98
2022-11-18T19:12:14.502Z,19.48
2022-11-18T19:14:46.314Z,18.98
2022-11-18T19:17:14.132Z,20.20
2022-11-18T19:20:01.434Z,18.45
2022-11-18T19:22:33.279Z,19.08
2022-11-18T19:25:01.874Z,19.42
2022-11-18T19:27:32.741Z,18.90
2022-11-18T19:30:01.321Z,19.75
2022-11-18T19:32:30.355Z,20.90
2022-11-18T19:34:58.576Z,19.27
2022-11-18T19:37:27.358Z,19.23
2022-11-18T19:39:59.313Z,18.85
2022-11-18T19:42:26.926Z,19.60
2022-11-18T19:44:55.098Z,20.60
2022-11-18T19:47:23.266Z,20.60
2022-11-18T19:49:51.459Z,21.00
2022-11-18T19:52:19.015Z,21.10
2022-11-18T19:54:46.942Z,21.13
2022-11-18T19:57:14.827Z,22.15
2022-11-18T19:59:46.348Z,23.23
2022-11-18T20:02:14.656Z,23.40
2022-11-18T20:05:04.433Z,23.88
2022-11-18T20:07:32.522Z,24.60
2022-11-18T20:10:00.412Z,24.58
2022-11-18T20:12:29.204Z,25.23
2022-11-18T20:14:58.350Z,24.58
2022-11-18T20:17:28.719Z,23.77
2022-11-18T20:19:56.612Z,24.45
2022-11-18T20:22:25.840Z,25.30
2022-11-18T20:24:54.632Z,25.45
2022-11-18T20:27:22.751Z,26.27
2022-11-18T20:29:50.668Z,26.02
2022-11-18T20:32:19.214Z,25.95
2022-11-18T20:34:47.469Z,25.27
2022-11-18T20:37:17.754Z,26.35
2022-11-18T20:39:45.649Z,25.23
2022-11-18T20:42:31.630Z,26.88
2022-11-18T20:45:02.211Z,25.88
2022-11-18T20:47:29.711Z,25.83
2022-11-18T20:49:57.624Z,26.80
2022-11-18T20:52:25.158Z,24.75
2022-11-18T20:54:52.687Z,26.00
2022-11-18T20:57:20.259Z,26.60
2022-11-18T20:59:48.030Z,27.15
2022-11-18T21:02:15.379Z,27.23
2022-11-18T21:04:42.942Z,26.25
2022-11-18T21:07:10.509Z,28.60
2022-11-18T21:09:38.271Z,27.30
2022-11-18T21:12:05.783Z,26.30
2022-11-18T21:14:33.262Z,26.45
2022-11-18T21:17:03.606Z,26.65
2022-11-18T21:19:34.833Z,26.27
2022-11-18T21:22:02.351Z,23.95
2022-11-18T21:24:32.467Z,25.70
2022-11-18T21:27:00.685Z,26.00
2022-11-18T21:29:30.912Z,25.13
2022-11-18T21:32:01.458Z,25.83
2022-11-18T21:34:29.332Z,26.33
2022-11-18T21:36:56.961Z,25.90
2022-11-18T21:39:27.601Z,24.52
2022-11-18T21:41:57.392Z,25.60
2022-11-18T21:44:28.578Z,28.48
2022-11-18T21:46:56.334Z,26.50
2022-11-18T21:49:23.990Z,26.80
2022-11-18T21:51:53.303Z,27.92
2022-11-18T21:54:20.709Z,27.45
2022-11-18T21:56:47.806Z,28.05
2022-11-18T21:59:20.928Z,27.42
2022-11-18T22:01:48.921Z,26.77
2022-11-18T22:04:36.303Z,25.42
2022-11-18T22:07:03.661Z,27.08
2022-11-18T22:09:36.186Z,25.60
2022-11-18T22:12:05.062Z,26.75
2022-11-18T22:14:32.393Z,28.30
2022-11-18T22:16:59.449Z,29.15
2022-11-18T22:19:26.909Z,28.73
2022-11-18T22:21:56.525Z,27.73
2022-11-18T22:24:24.215Z,28.50
2022-11-18T22:26:53.899Z,27.40
2022-11-18T22:29:21.606Z,25.90
2022-11-18T22:31:49.591Z,26.50
2022-11-18T22:34:16.832Z,26.60
2022-11-18T22:36:43.850Z,24.15
2022-11-18T22:39:11.147Z,25.38
2022-11-18T22:41:56.786Z,24.42
2022-11-18T22:44:24.144Z,23.73
2022-11-18T22:46:52.581Z,23.80
2022-11-18T22:49:20.014Z,23.85
2022-11-18T22:51:47.299Z,23.02
2022-11-18T22:57:02.133Z,23.27
2022-11-18T22:59:29.636Z,24.60
2022-11-18T23:01:56.587Z,24.02
2022-11-18T23:04:26.769Z,24.02
2022-11-18T23:06:53.925Z,25.42
2022-11-18T23:09:21.746Z,25.02
2022-11-18T23:12:09.629Z,24.33
2022-11-18T23:14:37.300Z,18.50
2022-11-18T23:17:04.855Z,26.30
2022-11-18T23:19:32.562Z,25.70
2022-11-18T23:22:01.798Z,25.40
2022-11-18T23:24:29.141Z,26.13
2022-11-18T23:26:56.260Z,26.92
2022-11-18T23:29:23.616Z,25.08
2022-11-18T23:31:50.562Z,24.92
2022-11-18T23:34:17.916Z,25.35
2022-11-18T23:36:44.975Z,26.80
2022-11-18T23:39:13.160Z,26.95
2022-11-18T23:41:40.657Z,26.30
2022-11-18T23:44:10.140Z,26.85
2022-11-18T23:46:39.430Z,25.65
2022-11-18T23:49:10.004Z,26.77
2022-11-18T23:51:37.018Z,27.33
2022-11-18T23:54:06.761Z,28.15
2022-11-18T23:56:37.840Z,27.90
2022-11-18T23:59:06.725Z,27.30
